Time;durP1;ratioP1;P1;durP2;ratioP2;P2;SDS_P1;SDS_P2;PMS_P1;PMS_P2;Temp;Humidity;BMP_temperature;BMP_pressure;BME280_temperature;BME280_humidity;BME280_pressure;Samples;Min_cycle;Max_cycle;Signal;HPM_P1;HPM_P2
2022/02/15 00:01:40;;;;;;;0.90;0.70;;;;;;;6.16;86.52;100751.41;5026212;28;20037;-86
2022/02/15 00:04:06;;;;;;;1.60;0.90;;;;;;;6.14;86.71;100748.00;5033562;28;20072;-86
2022/02/15 00:06:31;;;;;;;1.77;0.80;;;;;;;6.15;86.76;100747.09;5030761;28;20049;-86
2022/02/15 00:08:56;;;;;;;1.63;0.73;;;;;;;6.18;86.76;100749.63;5002826;28;20037;-85
2022/02/15 00:11:22;;;;;;;3.30;0.70;;;;;;;6.23;86.79;100757.31;5018088;28;20512;-85
2022/02/15 00:13:47;;;;;;;1.10;0.68;;;;;;;6.27;86.72;100758.94;5026115;28;20041;-85
2022/02/15 00:16:13;;;;;;;2.13;0.73;;;;;;;6.30;86.65;100753.69;5006235;28;20048;-85
2022/02/15 00:18:38;;;;;;;1.33;0.75;;;;;;;6.33;86.65;100754.47;5022030;28;20044;-85
2022/02/15 00:21:04;;;;;;;0.63;0.63;;;;;;;6.36;86.64;100758.72;5006499;28;20029;-85
2022/02/15 00:23:29;;;;;;;2.97;0.70;;;;;;;6.39;86.44;100763.00;5036986;28;20056;-85
2022/02/15 00:25:55;;;;;;;2.88;1.13;;;;;;;6.41;86.29;100761.22;5036226;28;20538;-85
2022/02/15 00:28:20;;;;;;;2.35;0.63;;;;;;;6.43;86.36;100762.88;5045184;28;20584;-85
2022/02/15 00:30:45;;;;;;;2.55;0.93;;;;;;;6.44;86.29;100768.94;5036857;28;20037;-85
2022/02/15 00:33:11;;;;;;;1.48;0.90;;;;;;;6.43;86.10;100765.47;5035458;28;20041;-85
2022/02/15 00:35:36;;;;;;;1.27;0.95;;;;;;;6.40;86.21;100765.56;5019509;28;20104;-85
2022/02/15 00:38:02;;;;;;;1.50;0.88;;;;;;;6.40;86.13;100767.31;5036976;28;20045;-85
2022/02/15 00:40:27;;;;;;;2.58;0.88;;;;;;;6.42;86.23;100771.59;5019610;28;20118;-85
2022/02/15 00:42:52;;;;;;;1.73;0.77;;;;;;;6.42;86.28;100776.81;5019338;28;20034;-85
2022/02/15 00:45:18;;;;;;;1.00;0.77;;;;;;;6.42;86.19;100773.31;5019961;28;20025;-85
2022/02/15 00:47:43;;;;;;;3.63;0.90;;;;;;;6.43;86.31;100773.28;5037765;28;20305;-85
2022/02/15 00:50:09;;;;;;;1.02;0.65;;;;;;;6.43;86.25;100773.28;5019236;28;20025;-85
2022/02/15 00:52:34;;;;;;;3.35;0.90;;;;;;;6.44;86.37;100776.72;5026036;28;20033;-85
2022/02/15 00:55:00;;;;;;;2.45;0.82;;;;;;;6.44;86.34;100774.13;5004758;28;20046;-85
2022/02/15 00:57:25;;;;;;;2.42;1.10;;;;;;;6.42;86.50;100771.59;5004243;28;20040;-85
2022/02/15 00:59:51;;;;;;;3.13;1.40;;;;;;;6.40;86.38;100783.75;5038295;28;20045;-85
2022/02/15 01:02:18;;;;;;;2.28;0.70;;;;;;;6.40;86.61;100782.91;5037803;28;20367;-85
2022/02/15 01:04:44;;;;;;;1.35;0.85;;;;;;;6.40;86.83;100793.31;5038291;28;20052;-85
2022/02/15 01:07:09;;;;;;;2.63;1.02;;;;;;;6.37;86.61;100780.38;5037748;28;20427;-85
2022/02/15 01:09:35;;;;;;;2.70;0.90;;;;;;;6.31;87.09;100779.66;5020781;28;20033;-85
2022/02/15 01:12:00;;;;;;;1.00;0.90;;;;;;;6.29;87.14;100789.25;5000278;28;20065;-85
2022/02/15 01:14:26;;;;;;;4.05;1.00;;;;;;;6.25;87.20;100790.19;5018305;28;20253;-86
2022/02/15 01:16:51;;;;;;;1.77;0.68;;;;;;;6.22;87.40;100789.41;5018347;28;20120;-86
2022/02/15 01:19:17;;;;;;;2.03;1.00;;;;;;;6.22;87.60;100798.09;5025971;28;20030;-85
2022/02/15 01:21:42;;;;;;;1.77;0.95;;;;;;;6.26;87.48;100798.88;5004073;28;20041;-85
2022/02/15 01:24:08;;;;;;;4.65;1.15;;;;;;;6.27;87.67;100813.56;5037527;28;20105;-85
2022/02/15 01:26:34;;;;;;;3.30;1.05;;;;;;;6.27;87.65;100808.38;5020624;28;20120;-86
2022/02/15 01:28:59;;;;;;;3.17;1.88;;;;;;;6.26;87.74;100807.50;5019852;28;20078;-86
2022/02/15 01:31:25;;;;;;;2.78;1.98;;;;;;;6.23;88.36;100807.59;5037613;28;20044;-85
2022/02/15 01:33:50;;;;;;;3.88;1.85;;;;;;;6.22;88.30;100812.81;5019986;28;20048;-85
2022/02/15 01:36:16;;;;;;;7.55;2.80;;;;;;;6.21;88.39;100809.38;5003689;28;20056;-85
2022/02/15 01:38:41;;;;;;;5.50;1.83;;;;;;;6.21;88.12;100811.97;5038076;28;20049;-86
2022/02/15 01:41:08;;;;;;;4.25;2.20;;;;;;;6.18;88.55;100817.22;5037444;28;20044;-86
2022/02/15 01:43:46;;;;;;;4.65;1.50;;;;;;;6.19;88.45;100820.69;5037060;28;20419;-86
2022/02/15 01:46:13;;;;;;;4.00;2.27;;;;;;;6.19;88.63;100820.69;5036059;28;20045;-86
2022/02/15 01:48:43;;;;;;;7.28;1.75;;;;;;;6.19;88.64;100818.09;5037377;28;20045;-85
2022/02/15 01:51:09;;;;;;;9.98;2.60;;;;;;;6.17;88.82;100820.75;5037157;28;20401;-85
2022/02/15 01:53:34;;;;;;;7.70;2.20;;;;;;;6.15;89.02;100823.38;5036943;28;20107;-85
2022/02/15 01:56:00;;;;;;;8.45;1.85;;;;;;;6.12;89.30;100826.03;5037562;28;20048;-85
2022/02/15 01:58:26;;;;;;;9.80;2.33;;;;;;;6.11;89.23;100829.53;5037240;28;20235;-85
2022/02/15 02:06:57;;;;;;;5.88;1.60;;;;;;;6.07;89.79;100822.66;5019461;28;20125;-86
2022/02/15 02:09:23;;;;;;;4.93;1.60;;;;;;;6.10;89.56;100822.59;5036944;28;20029;-86
2022/02/15 02:11:48;;;;;;;4.32;1.40;;;;;;;6.11;89.46;100824.34;5039295;28;20045;-85
2022/02/15 02:14:13;;;;;;;3.05;1.42;;;;;;;6.10;89.49;100814.81;5002219;28;20033;-85
2022/02/15 02:16:40;;;;;;;6.70;1.88;;;;;;;6.11;89.60;100818.25;5019705;28;20108;-85
2022/02/15 02:19:05;;;;;;;4.75;1.70;;;;;;;6.10;89.62;100820.00;5036530;28;20334;-85
2022/02/15 02:21:40;;;;;;;6.85;1.60;;;;;;;6.09;89.59;100822.63;5037103;28;20342;-85
2022/02/15 02:24:06;;;;;;;3.28;1.70;;;;;;;6.06;89.82;100820.13;5019114;28;20064;-85
2022/02/15 02:26:32;;;;;;;8.70;1.77;;;;;;;6.06;90.01;100827.94;5037278;28;20057;-86
2022/02/15 02:28:58;;;;;;;5.22;2.15;;;;;;;6.04;89.86;100822.75;5019233;28;20228;-86
2022/02/15 02:31:23;;;;;;;7.68;1.85;;;;;;;6.07;89.82;100829.63;5003263;28;20040;-86
2022/02/15 02:33:48;;;;;;;3.40;2.13;;;;;;;6.05;89.90;100832.25;5019370;28;20033;-86
2022/02/15 02:36:14;;;;;;;5.15;1.73;;;;;;;6.06;90.12;100828.78;5036821;28;20225;-86
2022/02/15 02:38:39;;;;;;;1.73;1.42;;;;;;;6.09;89.96;100839.13;5019463;28;20037;-86
2022/02/15 02:41:05;;;;;;;5.95;2.08;;;;;;;6.12;89.93;100833.81;5018901;28;20230;-86
2022/02/15 02:43:30;;;;;;;8.90;2.72;;;;;;;6.13;89.89;100840.75;5036868;28;20242;-86
2022/02/15 02:45:55;;;;;;;3.28;2.00;;;;;;;6.16;90.01;100839.81;5019107;28;20033;-85
2022/02/15 02:48:21;;;;;;;7.93;2.05;;;;;;;6.19;89.90;100844.97;5019550;28;20068;-85
2022/02/15 02:50:46;;;;;;;2.20;1.73;;;;;;;6.20;89.65;100845.81;5019062;28;20249;-85
2022/02/15 02:53:16;;;;;;;5.45;2.10;;;;;;;6.22;89.82;100844.03;5039221;28;20245;-85
2022/02/15 02:55:42;;;;;;;4.40;2.00;;;;;;;6.22;89.65;100847.50;5041823;28;20098;-86
2022/02/15 02:58:07;;;;;;;4.43;2.40;;;;;;;6.23;89.75;100845.75;5036957;28;20345;-85
2022/02/15 03:00:32;;;;;;;7.10;2.53;;;;;;;6.25;90.04;100843.97;5002333;28;20092;-85
2022/02/15 03:03:00;;;;;;;3.75;1.83;;;;;;;6.23;89.85;100856.16;5018818;28;20025;-85
2022/02/15 03:05:25;;;;;;;4.43;2.33;;;;;;;6.23;89.83;100851.78;5018910;28;20046;-85
2022/02/15 03:07:51;;;;;;;3.35;1.88;;;;;;;6.24;89.77;100858.72;5002748;28;20033;-85
2022/02/15 03:10:17;;;;;;;7.03;2.58;;;;;;;6.25;89.78;100862.16;5019050;28;20107;-85
2022/02/15 03:12:42;;;;;;;5.97;2.45;;;;;;;6.25;89.74;100856.97;4986606;28;20330;-85
2022/02/15 03:15:08;;;;;;;7.43;3.20;;;;;;;6.24;90.02;100860.44;5019015;28;20045;-86
2022/02/15 03:17:33;;;;;;;6.47;2.97;;;;;;;6.22;89.81;100862.22;4999630;28;20337;-86
2022/02/15 03:19:59;;;;;;;7.10;2.53;;;;;;;6.23;89.90;100869.16;5027865;28;20036;-86
2022/02/15 03:22:25;;;;;;;4.90;2.45;;;;;;;6.25;89.84;100872.56;5036442;28;20053;-85
2022/02/15 03:24:51;;;;;;;6.35;2.78;;;;;;;6.26;89.66;100880.34;5036541;28;20044;-86
2022/02/15 03:27:16;;;;;;;6.57;2.78;;;;;;;6.26;89.58;100875.13;5021797;28;20038;-86
2022/02/15 03:29:42;;;;;;;4.38;3.13;;;;;;;6.27;89.80;100879.44;5022894;28;20084;-86
2022/02/15 03:32:07;;;;;;;10.18;2.63;;;;;;;6.29;89.88;100882.00;5022195;28;20392;-86
2022/02/15 03:34:33;;;;;;;7.07;2.63;;;;;;;6.31;89.91;100888.91;5022060;28;20044;-86
2022/02/15 03:36:58;;;;;;;6.03;3.30;;;;;;;6.33;89.82;100900.13;5022427;28;20045;-86
2022/02/15 03:39:24;;;;;;;6.35;2.40;;;;;;;6.35;89.74;100892.28;5038707;28;20278;-85
2022/02/15 03:44:33;;;;;;;2.95;1.80;;;;;;;6.41;89.59;100905.16;5024521;28;20125;-83
2022/02/15 03:46:59;;;;;;;5.38;2.30;;;;;;;6.44;89.48;100914.63;5038535;28;20233;-83
2022/02/15 03:49:24;;;;;;;6.70;2.40;;;;;;;6.45;89.50;100916.34;5017023;28;20028;-83
2022/02/15 03:51:50;;;;;;;4.72;2.50;;;;;;;6.46;89.40;100923.28;5039519;28;20104;-83
2022/02/15 03:54:15;;;;;;;4.47;2.30;;;;;;;6.46;89.39;100924.13;5021503;28;20043;-83
2022/02/15 03:56:41;;;;;;;5.43;2.45;;;;;;;6.46;89.41;100924.13;5004931;28;20105;-83
2022/02/15 03:59:06;;;;;;;13.73;2.53;;;;;;;6.46;89.48;100926.72;5039416;28;20048;-86
2022/02/15 04:01:33;;;;;;;6.68;2.70;;;;;;;6.44;89.47;100928.50;5039141;28;20041;-86
2022/02/15 04:03:58;;;;;;;6.63;2.65;;;;;;;6.46;89.44;100937.13;5021948;28;20339;-86
2022/02/15 04:06:23;;;;;;;6.78;2.78;;;;;;;6.45;89.36;100934.56;5039230;28;20053;-87
2022/02/15 04:08:49;;;;;;;13.38;3.60;;;;;;;6.42;89.82;100948.50;5021877;28;20195;-86
2022/02/15 04:11:14;;;;;;;6.45;2.58;;;;;;;6.42;89.66;100945.03;5039009;28;20041;-86
2022/02/15 04:13:40;;;;;;;9.38;3.17;;;;;;;6.41;89.88;100941.56;5039939;28;20036;-87
2022/02/15 04:16:06;;;;;;;8.63;3.03;;;;;;;6.42;89.80;100947.63;5039206;28;20038;-87
2022/02/15 04:18:32;;;;;;;7.38;2.70;;;;;;;6.42;89.65;100948.50;5021772;28;20237;-87
2022/02/15 04:20:57;;;;;;;6.47;3.08;;;;;;;6.41;89.97;100951.13;5038595;28;20275;-87
2022/02/15 04:23:23;;;;;;;8.18;2.55;;;;;;;6.40;89.77;100952.84;5039119;28;20029;-86
2022/02/15 04:25:49;;;;;;;12.07;3.00;;;;;;;6.39;89.94;100958.97;5021507;28;20047;-86
2022/02/15 04:28:14;;;;;;;6.55;2.80;;;;;;;6.37;89.73;100955.53;5017802;28;20326;-87
2022/02/15 04:30:39;;;;;;;14.27;3.53;;;;;;;6.36;89.98;100952.97;5027417;28;20033;-87
2022/02/15 04:33:06;;;;;;;4.97;2.10;;;;;;;6.36;89.79;100953.81;5004569;28;20343;-86
2022/02/15 04:35:31;;;;;;;9.63;2.65;;;;;;;6.34;89.76;100966.84;5021001;28;20329;-86
2022/02/15 04:37:57;;;;;;;9.27;2.42;;;;;;;6.33;89.88;100965.16;5020927;28;20227;-87
2022/02/15 04:40:22;;;;;;;6.95;2.90;;;;;;;6.34;89.94;100979.00;5004635;28;20068;-86
2022/02/15 04:42:48;;;;;;;6.05;2.30;;;;;;;6.33;89.99;100969.47;5004760;28;20037;-86
2022/02/15 04:45:13;;;;;;;6.07;2.35;;;;;;;6.32;89.95;100975.59;5021518;28;20067;-86
2022/02/15 04:47:40;;;;;;;12.18;2.55;;;;;;;6.32;90.12;100984.25;5004993;28;20236;-86
2022/02/15 04:50:05;;;;;;;6.57;2.15;;;;;;;6.32;90.03;100979.03;5020073;28;20041;-86
2022/02/15 04:52:31;;;;;;;11.43;2.55;;;;;;;6.30;90.22;100982.56;5019907;28;20113;-86
2022/02/15 04:54:56;;;;;;;9.90;2.22;;;;;;;6.28;90.51;100992.16;5038328;28;20045;-86
2022/02/15 04:57:22;;;;;;;11.88;2.95;;;;;;;6.26;90.48;100996.53;5038404;28;20037;-86
2022/02/15 04:59:47;;;;;;;10.75;2.28;;;;;;;6.26;90.25;100994.78;5020317;28;20041;-86
2022/02/15 05:02:13;;;;;;;7.47;1.75;;;;;;;6.27;89.94;101001.69;5021029;28;20041;-86
2022/02/15 05:04:50;;;;;;;11.25;2.33;;;;;;;6.24;90.44;100999.16;5038629;28;20041;-86
2022/02/15 05:07:22;;;;;;;9.45;2.40;;;;;;;6.22;90.42;101006.13;5020465;28;20356;-86
2022/02/15 05:09:48;;;;;;;12.32;2.35;;;;;;;6.21;90.36;101000.97;5030493;28;20310;-87
2022/02/15 05:12:14;;;;;;;9.30;3.13;;;;;;;6.21;90.12;101009.63;5018540;28;20037;-86
2022/02/15 05:14:40;;;;;;;13.88;2.78;;;;;;;6.21;90.07;101012.22;5017718;28;20041;-86
2022/02/15 05:17:06;;;;;;;7.22;2.13;;;;;;;6.22;89.88;101011.34;5018276;28;20124;-87
2022/02/15 05:19:32;;;;;;;10.00;2.05;;;;;;;6.24;89.76;101019.97;5024745;28;20036;-86
2022/02/15 05:21:57;;;;;;;8.02;2.08;;;;;;;6.23;89.13;101018.25;5037887;28;20333;-86
2022/02/15 05:24:22;;;;;;;14.88;2.75;;;;;;;6.22;89.08;101021.75;5038237;28;20075;-86
2022/02/15 05:26:48;;;;;;;6.20;1.50;;;;;;;6.22;89.19;101020.88;5003710;28;20194;-86
2022/02/15 05:29:13;;;;;;;9.02;1.50;;;;;;;6.20;89.13;101033.03;5019760;28;20037;-86
2022/02/15 05:31:39;;;;;;;8.30;1.75;;;;;;;6.20;88.92;101027.84;5020693;28;20037;-87
2022/02/15 05:34:04;;;;;;;8.10;1.73;;;;;;;6.22;88.76;101031.28;5037541;28;20225;-86
2022/02/15 05:36:31;;;;;;;6.10;1.75;;;;;;;6.22;88.63;101036.47;5020168;28;20025;-86
2022/02/15 05:38:57;;;;;;;15.75;2.30;;;;;;;6.21;88.36;101025.22;5020532;28;20048;-86
2022/02/15 05:41:22;;;;;;;2.53;1.30;;;;;;;6.19;88.34;101029.59;5019963;28;20048;-86
2022/02/15 05:43:48;;;;;;;12.10;1.77;;;;;;;6.20;88.35;101035.66;5002428;28;20229;-87
2022/02/15 05:46:13;;;;;;;10.27;2.13;;;;;;;6.18;88.21;101035.66;5019910;28;20204;-86
2022/02/15 05:48:39;;;;;;;7.60;1.90;;;;;;;6.18;88.11;101034.81;5003099;28;20542;-86
2022/02/15 05:51:04;;;;;;;7.35;1.65;;;;;;;6.18;88.33;101034.81;5036773;28;20128;-86
2022/02/15 05:53:31;;;;;;;11.13;1.75;;;;;;;6.14;88.48;101042.69;5037585;28;20073;-86
2022/02/15 05:56:02;;;;;;;13.20;2.28;;;;;;;6.14;88.53;101042.69;5037500;28;20296;-86
2022/02/15 05:58:29;;;;;;;9.95;2.30;;;;;;;6.14;88.50;101047.88;5019829;28;20317;-86
2022/02/15 06:00:56;;;;;;;13.35;2.63;;;;;;;6.12;88.63;101041.00;5037599;28;20383;-86
2022/02/15 06:06:06;;;;;;;10.52;2.53;;;;;;;6.07;88.20;101042.81;5018660;28;20156;-87
2022/02/15 06:08:31;;;;;;;5.50;2.22;;;;;;;6.08;88.27;101048.00;5020294;28;20255;-86
2022/02/15 06:10:57;;;;;;;11.57;2.40;;;;;;;6.09;88.02;101049.72;5036762;28;20046;-86
2022/02/15 06:13:23;;;;;;;8.40;2.35;;;;;;;6.10;87.98;101047.97;5036479;28;20045;-86
2022/02/15 06:15:48;;;;;;;9.43;1.88;;;;;;;6.11;87.86;101047.06;5018993;28;20099;-86
2022/02/15 06:18:14;;;;;;;4.95;1.92;;;;;;;6.11;87.82;101057.47;5036263;28;20151;-86
2022/02/15 06:20:40;;;;;;;7.18;2.40;;;;;;;6.08;87.44;101055.81;5052778;28;20025;-86
2022/02/15 06:23:05;;;;;;;5.78;2.00;;;;;;;6.09;87.42;101054.94;5013107;28;20068;-86
2022/02/15 06:25:31;;;;;;;8.48;1.88;;;;;;;6.08;87.14;101057.56;5001468;28;20332;-86
2022/02/15 06:27:56;;;;;;;4.45;1.75;;;;;;;6.07;87.22;101061.03;5035136;28;20222;-86
2022/02/15 06:30:22;;;;;;;5.53;2.00;;;;;;;6.08;87.25;101065.34;5037165;28;20033;-86
2022/02/15 06:32:48;;;;;;;7.78;2.30;;;;;;;6.07;87.15;101063.63;5020868;28;20037;-86
2022/02/15 06:35:14;;;;;;;2.55;1.73;;;;;;;6.09;87.58;101065.34;5023220;28;20121;-86
2022/02/15 06:37:43;;;;;;;6.20;1.70;;;;;;;6.12;87.19;101067.84;5037140;28;20037;-86
2022/02/15 06:40:12;;;;;;;6.65;2.22;;;;;;;6.10;86.98;101064.44;5036716;28;20325;-86
2022/02/15 06:42:37;;;;;;;5.10;2.80;;;;;;;6.08;86.77;101066.22;5018944;28;20344;-86
2022/02/15 06:45:03;;;;;;;10.45;2.22;;;;;;;6.07;86.95;101071.44;5038294;28;20030;-86
2022/02/15 06:47:28;;;;;;;7.13;2.35;;;;;;;6.06;87.08;101075.78;5019349;28;20333;-85
2022/02/15 06:49:54;;;;;;;8.88;2.47;;;;;;;6.04;87.12;101077.56;5030162;28;20044;-86
2022/02/15 06:52:19;;;;;;;5.22;2.25;;;;;;;6.04;86.86;101076.66;5024228;28;20132;-86
2022/02/15 06:54:45;;;;;;;8.45;2.13;;;;;;;6.03;86.97;101077.56;5046024;28;20041;-86
2022/02/15 06:57:10;;;;;;;7.93;2.70;;;;;;;6.02;87.31;101087.13;5028720;28;20033;-86
2022/02/15 06:59:35;;;;;;;8.52;3.20;;;;;;;6.03;87.23;101090.56;5046574;28;20027;-86
2022/02/15 07:02:01;;;;;;;8.18;2.70;;;;;;;6.04;86.97;101094.88;5026878;28;20033;-86
2022/02/15 07:04:27;;;;;;;8.13;3.03;;;;;;;5.98;87.09;101106.25;5014642;28;20041;-86
2022/02/15 07:06:52;;;;;;;9.88;2.58;;;;;;;5.96;87.07;101108.88;5021189;28;20063;-86
2022/02/15 07:09:18;;;;;;;12.40;3.20;;;;;;;5.95;87.34;101109.78;5021522;28;20206;-86
2022/02/15 07:11:43;;;;;;;11.32;2.78;;;;;;;5.95;87.39;101114.97;5006499;28;20336;-86
2022/02/15 07:14:09;;;;;;;9.30;1.95;;;;;;;5.93;87.58;101121.91;5021029;28;20042;-86
2022/02/15 07:16:35;;;;;;;12.65;3.53;;;;;;;5.92;87.41;101111.53;5044220;28;20137;-86
2022/02/15 07:19:02;;;;;;;6.63;1.98;;;;;;;5.94;87.60;101120.16;5039430;28;20091;-86
2022/02/15 07:21:28;;;;;;;7.47;2.40;;;;;;;5.98;87.71;101127.03;4993287;28;20029;-86
2022/02/15 07:23:55;;;;;;;7.95;2.10;;;;;;;6.00;87.49;101133.06;5038775;28;20036;-86
2022/02/15 07:26:20;;;;;;;7.05;2.30;;;;;;;6.00;87.64;101133.06;5006297;28;20041;-86
2022/02/15 07:28:46;;;;;;;7.75;2.25;;;;;;;6.02;87.54;101127.84;5039209;28;20040;-86
2022/02/15 07:31:11;;;;;;;7.38;1.67;;;;;;;6.02;87.46;101133.94;5036182;28;20100;-86
2022/02/15 07:33:37;;;;;;;8.23;2.00;;;;;;;6.02;87.43;101143.44;5018125;28;20057;-86
2022/02/15 07:36:03;;;;;;;7.68;1.80;;;;;;;6.01;87.34;101142.59;5019469;28;20033;-86
2022/02/15 07:38:28;;;;;;;11.73;2.20;;;;;;;5.96;87.62;101137.47;5037563;28;20383;-86
2022/02/15 07:40:53;;;;;;;8.85;2.05;;;;;;;5.96;87.50;101142.66;5026775;28;20038;-86
2022/02/15 07:43:19;;;;;;;9.07;1.92;;;;;;;5.96;87.58;101150.47;5002570;28;20033;-86
2022/02/15 07:45:45;;;;;;;5.95;2.00;;;;;;;5.95;87.71;101146.16;5010935;28;20048;-86
2022/02/15 07:48:12;;;;;;;6.68;2.15;;;;;;;5.98;87.72;101147.00;5015054;28;20240;-86
2022/02/15 07:50:40;;;;;;;12.80;2.30;;;;;;;5.99;87.57;101148.72;5025772;28;20045;-86
2022/02/15 07:53:05;;;;;;;9.00;1.85;;;;;;;5.98;87.23;101149.59;5016124;28;20080;-86
2022/02/15 07:55:31;;;;;;;7.97;2.15;;;;;;;5.96;87.08;101160.84;5020361;28;20037;-86
2022/02/15 07:57:56;;;;;;;12.25;2.00;;;;;;;5.92;87.05;101153.97;5019370;28;20111;-86
2022/02/15 08:00:22;;;;;;;9.68;2.88;;;;;;;5.93;87.09;101147.03;5018571;28;20045;-86
2022/02/15 08:02:52;;;;;;;8.27;1.60;;;;;;;5.94;87.22;101154.81;5034856;28;20370;-86
2022/02/15 08:05:19;;;;;;;7.93;1.95;;;;;;;5.94;87.01;101157.41;5031360;28;20073;-86
2022/02/15 08:07:48;;;;;;;7.80;1.83;;;;;;;5.94;86.76;101151.34;5009562;28;20056;-86
2022/02/15 08:10:18;;;;;;;14.88;2.78;;;;;;;5.89;86.70;101160.97;5036442;28;20095;-86
2022/02/15 08:12:46;;;;;;;9.82;2.20;;;;;;;5.88;86.85;101161.88;5035021;28;20226;-86
2022/02/15 08:15:11;;;;;;;9.45;2.15;;;;;;;5.88;86.92;101170.50;5036529;28;20260;-86
2022/02/15 08:17:37;;;;;;;8.38;1.65;;;;;;;5.88;86.87;101169.66;5028811;28;20089;-86
2022/02/15 08:20:03;;;;;;;10.07;2.03;;;;;;;5.87;86.99;101168.78;5030309;28;20080;-86
2022/02/15 08:22:28;;;;;;;5.15;1.45;;;;;;;5.89;86.78;101164.41;5035887;28;20041;-86
2022/02/15 08:24:53;;;;;;;9.05;1.80;;;;;;;5.89;86.82;101169.59;5016677;28;20045;-86
2022/02/15 08:27:19;;;;;;;7.70;2.00;;;;;;;5.88;86.27;101160.09;5019689;28;20041;-86
2022/02/15 08:29:44;;;;;;;15.00;2.38;;;;;;;5.87;86.36;101162.72;5029145;28;20105;-86
2022/02/15 08:32:11;;;;;;;10.30;2.08;;;;;;;5.83;85.80;101181.88;5036002;28;20037;-85
2022/02/15 08:34:37;;;;;;;9.77;1.85;;;;;;;5.85;85.25;101187.91;5011136;28;20083;-85
2022/02/15 08:37:03;;;;;;;11.65;2.33;;;;;;;5.76;85.33;101188.88;5011731;28;20265;-86
2022/02/15 08:39:28;;;;;;;11.57;1.83;;;;;;;5.75;85.56;101176.78;5017716;28;20037;-86
2022/02/15 08:41:54;;;;;;;10.32;2.17;;;;;;;5.76;85.85;101174.13;5008835;28;20100;-86
2022/02/15 08:44:19;;;;;;;9.75;2.25;;;;;;;5.77;85.71;101188.88;5000206;28;20068;-85
2022/02/15 08:46:45;;;;;;;6.35;2.03;;;;;;;5.76;85.40;101175.88;5040119;28;20228;-86
2022/02/15 08:49:10;;;;;;;9.95;2.05;;;;;;;5.76;85.72;101174.13;5023959;28;20096;-86
2022/02/15 08:51:38;;;;;;;10.98;2.20;;;;;;;5.76;85.98;101170.69;5019078;28;20061;-86
2022/02/15 08:54:04;;;;;;;11.00;2.13;;;;;;;5.77;85.56;101175.03;5035481;28;20128;-85
2022/02/15 08:56:30;;;;;;;10.70;2.45;;;;;;;5.76;85.68;101171.53;5021497;28;20097;-86
2022/02/15 08:58:55;;;;;;;12.48;1.88;;;;;;;5.77;85.79;101168.06;5037113;28;20225;-86
2022/02/15 09:01:20;;;;;;;12.18;2.30;;;;;;;5.76;85.70;101171.53;5014590;28;20029;-86
2022/02/15 09:03:46;;;;;;;8.55;2.10;;;;;;;5.77;85.95;101178.47;5033911;28;20556;-86
2022/02/15 09:06:12;;;;;;;9.88;2.03;;;;;;;5.79;85.37;101201.84;5026881;28;20087;-85
2022/02/15 09:08:37;;;;;;;7.15;1.65;;;;;;;5.79;85.30;101191.44;5035849;28;20108;-85
2022/02/15 09:11:03;;;;;;;15.07;2.58;;;;;;;5.81;85.37;101188.84;5033852;28;20371;-86
2022/02/15 09:13:28;;;;;;;6.80;1.85;;;;;;;5.82;85.44;101191.41;5042755;28;20096;-86
2022/02/15 09:15:54;;;;;;;12.32;2.15;;;;;;;5.84;84.69;101183.56;5046322;28;20075;-86
2022/02/15 09:18:19;;;;;;;9.75;1.70;;;;;;;5.85;84.72;101178.34;5018022;28;20041;-85
2022/02/15 09:20:44;;;;;;;10.50;1.98;;;;;;;5.88;84.80;101180.06;5034659;28;20122;-86
2022/02/15 09:23:10;;;;;;;10.55;1.50;;;;;;;5.91;84.82;101175.66;5034662;28;20346;-86
2022/02/15 09:25:35;;;;;;;12.00;1.75;;;;;;;5.91;85.00;101173.06;5023150;28;20347;-85
2022/02/15 09:28:02;;;;;;;8.95;1.90;;;;;;;5.96;84.92;101180.81;5040584;28;20037;-85
2022/02/15 09:30:28;;;;;;;11.23;2.53;;;;;;;5.99;84.94;101172.13;5039717;28;20029;-86
2022/02/15 09:32:53;;;;;;;6.78;2.05;;;;;;;6.00;84.56;101173.81;5031351;28;20278;-86
2022/02/15 09:35:19;;;;;;;7.55;2.67;;;;;;;6.04;84.98;101172.88;5010802;28;20088;-86
2022/02/15 09:37:44;;;;;;;9.40;1.63;;;;;;;6.03;84.42;101169.44;5034485;28;20341;-85
2022/02/15 09:40:10;;;;;;;9.23;1.90;;;;;;;6.04;84.34;101173.75;5033933;28;20152;-85
2022/02/15 09:42:37;;;;;;;5.53;1.27;;;;;;;6.05;84.10;101174.59;5032607;28;20360;-86
2022/02/15 09:45:08;;;;;;;6.38;1.23;;;;;;;6.08;83.96;101182.38;5013902;28;20033;-86
2022/02/15 09:47:35;;;;;;;7.82;1.67;;;;;;;6.08;83.88;101191.03;5038673;28;20037;-85
2022/02/15 09:50:07;;;;;;;9.63;1.80;;;;;;;6.09;83.91;101184.06;5034858;28;20036;-86
2022/02/15 09:52:33;;;;;;;6.68;1.40;;;;;;;6.08;83.71;101182.38;5034459;28;20029;-85
2022/02/15 09:54:58;;;;;;;10.13;1.77;;;;;;;6.09;83.46;101173.66;5016661;28;20045;-85
2022/02/15 09:57:25;;;;;;;4.57;1.33;;;;;;;6.12;83.75;101168.41;5036436;28;20091;-86
2022/02/15 09:59:51;;;;;;;6.72;0.93;;;;;;;6.13;83.21;101160.59;5034425;28;20341;-85
2022/02/15 10:02:27;;;;;;;6.60;1.35;;;;;;;6.17;83.11;101163.13;5033811;28;20037;-85
2022/02/15 10:04:54;;;;;;;12.27;1.95;;;;;;;6.16;83.21;101144.06;5036152;28;20041;-86
2022/02/15 10:07:20;;;;;;;7.32;1.30;;;;;;;6.19;83.09;101145.78;5031794;28;20042;-85
2022/02/15 10:09:50;;;;;;;10.20;1.35;;;;;;;6.22;83.56;101133.59;5033324;28;20037;-85
2022/02/15 10:12:16;;;;;;;6.88;1.20;;;;;;;6.25;83.70;101133.50;5014206;28;20097;-85
2022/02/15 10:14:46;;;;;;;4.20;1.10;;;;;;;6.29;83.75;101134.31;5028414;28;20091;-86
2022/02/15 10:17:17;;;;;;;2.63;0.90;;;;;;;6.34;84.09;101135.94;5029007;28;20029;-85
2022/02/15 10:19:50;;;;;;;8.80;1.60;;;;;;;6.39;84.50;101141.06;5017207;28;20253;-86
2022/02/15 10:22:20;;;;;;;8.07;1.50;;;;;;;6.41;84.09;101138.44;5035064;28;20398;-85
2022/02/15 10:24:58;;;;;;;8.82;0.98;;;;;;;6.42;84.25;101141.03;5017415;28;20033;-85
2022/02/15 10:27:31;;;;;;;4.95;1.20;;;;;;;6.43;83.37;101155.72;5035306;28;20061;-85
2022/02/15 10:29:58;;;;;;;5.93;1.23;;;;;;;6.46;83.43;101139.22;5016755;28;20033;-85
2022/02/15 10:32:24;;;;;;;5.25;1.20;;;;;;;6.45;83.10;101137.50;5033108;28;20107;-85
2022/02/15 10:34:58;;;;;;;11.38;1.75;;;;;;;6.47;83.31;101143.53;5017782;28;20099;-86
2022/02/15 10:37:30;;;;;;;10.73;1.95;;;;;;;6.48;83.94;101134.84;5035274;28;20029;-86
2022/02/15 10:40:00;;;;;;;7.93;1.23;;;;;;;6.50;83.50;101133.06;5038356;28;20080;-85
2022/02/15 10:42:29;;;;;;;10.60;1.30;;;;;;;6.48;83.24;101138.28;5024086;28;20060;-85
2022/02/15 10:45:06;;;;;;;9.43;2.55;;;;;;;6.51;83.58;101147.78;5021272;28;20053;-85
2022/02/15 10:47:43;;;;;;;11.13;1.45;;;;;;;6.52;83.45;101149.50;5015834;28;20321;-85
2022/02/15 10:50:11;;;;;;;7.30;1.55;;;;;;;6.53;83.31;101146.00;5037514;28;20041;-85
2022/02/15 10:52:38;;;;;;;8.85;1.42;;;;;;;6.54;83.77;101158.97;5020116;28;20104;-85
2022/02/15 10:55:04;;;;;;;6.72;1.40;;;;;;;6.56;83.65;101158.97;5037739;28;20044;-85
2022/02/15 10:57:30;;;;;;;12.13;1.95;;;;;;;6.59;83.17;101152.84;5038462;28;20033;-85
2022/02/15 11:00:01;;;;;;;7.63;1.25;;;;;;;6.61;83.41;101145.88;5033634;28;20063;-85
2022/02/15 11:02:30;;;;;;;7.45;1.50;;;;;;;6.61;83.40;101149.31;5033814;28;20048;-86
2022/02/15 11:04:57;;;;;;;8.38;1.45;;;;;;;6.63;83.07;101150.16;5046528;28;20040;-86
2022/02/15 11:07:25;;;;;;;9.48;1.90;;;;;;;6.65;83.08;101152.72;5039356;28;20091;-85
2022/02/15 11:10:02;;;;;;;6.30;1.20;;;;;;;6.66;82.83;101154.44;5041409;28;20029;-85
2022/02/15 11:12:36;;;;;;;8.25;1.70;;;;;;;6.68;82.61;101139.66;5048198;28;20041;-85
2022/02/15 11:15:05;;;;;;;12.00;1.83;;;;;;;6.68;82.20;101134.47;5045027;28;20033;-86
2022/02/15 11:17:31;;;;;;;5.60;1.55;;;;;;;6.69;82.77;101130.94;5037365;28;20041;-85
2022/02/15 11:20:07;;;;;;;6.22;1.75;;;;;;;6.69;82.05;101136.16;5019315;28;20057;-85
2022/02/15 11:22:42;;;;;;;4.25;1.20;;;;;;;6.71;82.02;101124.84;5036643;28;20112;-85
2022/02/15 11:25:09;;;;;;;7.30;1.48;;;;;;;6.71;82.12;101116.16;5014583;28;20098;-85
2022/02/15 11:27:35;;;;;;;5.05;1.50;;;;;;;6.73;82.40;101117.84;5040658;28;20123;-85
2022/02/15 11:30:01;;;;;;;6.00;1.60;;;;;;;6.76;82.54;101111.72;5019379;28;20069;-85
2022/02/15 11:32:34;;;;;;;8.63;1.98;;;;;;;6.78;82.70;101106.47;5037501;28;20078;-86
2022/02/15 11:35:12;;;;;;;8.52;2.13;;;;;;;6.77;82.46;101108.25;5017890;28;20045;-86
2022/02/15 11:37:38;;;;;;;7.15;1.35;;;;;;;6.79;81.54;101106.47;5018887;28;20033;-85
2022/02/15 11:40:12;;;;;;;5.80;1.65;;;;;;;6.82;82.04;101103.81;5033284;28;20040;-85